地図

経路データ

SID SEASON NUMBER BASIN SUBBASIN NAME ISO_TIME NATURE LAT LON WMO_WIND WMO_PRES WMO_AGENCY TRACK_TYPE DIST2LAND LANDFALL IFLAG USA_AGENCY USA_ATCF_ID USA_LAT USA_LON USA_RECORD USA_STATUS USA_WIND USA_PRES USA_SSHS USA_R34_NE USA_R34_SE USA_R34_SW USA_R34_NW USA_R50_NE USA_R50_SE USA_R50_SW USA_R50_NW USA_R64_NE USA_R64_SE USA_R64_SW USA_R64_NW USA_POCI USA_ROCI USA_RMW USA_EYE TOKYO_LAT TOKYO_LON TOKYO_GRADE TOKYO_WIND TOKYO_PRES TOKYO_R50_DIR TOKYO_R50_LONG TOKYO_R50_SHORT TOKYO_R30_DIR TOKYO_R30_LONG TOKYO_R30_SHORT TOKYO_LAND CMA_LAT CMA_LON CMA_CAT CMA_WIND CMA_PRES HKO_LAT HKO_LON HKO_CAT HKO_WIND HKO_PRES NEWDELHI_LAT NEWDELHI_LON NEWDELHI_GRADE NEWDELHI_WIND NEWDELHI_PRES NEWDELHI_CI NEWDELHI_DP NEWDELHI_POCI REUNION_LAT REUNION_LON REUNION_TYPE REUNION_WIND REUNION_PRES REUNION_TNUM REUNION_CI REUNION_RMW REUNION_R34_NE REUNION_R34_SE REUNION_R34_SW REUNION_R34_NW REUNION_R50_NE REUNION_R50_SE REUNION_R50_SW REUNION_R50_NW REUNION_R64_NE REUNION_R64_SE REUNION_R64_SW REUNION_R64_NW BOM_LAT BOM_LON BOM_TYPE BOM_WIND BOM_PRES BOM_TNUM BOM_CI BOM_RMW BOM_R34_NE BOM_R34_SE BOM_R34_SW BOM_R34_NW BOM_R50_NE BOM_R50_SE BOM_R50_SW BOM_R50_NW BOM_R64_NE BOM_R64_SE BOM_R64_SW BOM_R64_NW BOM_ROCI BOM_POCI BOM_EYE BOM_POS_METHOD BOM_PRES_METHOD NADI_LAT NADI_LON NADI_CAT NADI_WIND NADI_PRES WELLINGTON_LAT WELLINGTON_LON WELLINGTON_WIND WELLINGTON_PRES DS824_LAT DS824_LON DS824_STAGE DS824_WIND DS824_PRES TD9636_LAT TD9636_LON TD9636_STAGE TD9636_WIND TD9636_PRES TD9635_LAT TD9635_LON TD9635_WIND TD9635_PRES TD9635_ROCI NEUMANN_LAT NEUMANN_LON NEUMANN_CLASS NEUMANN_WIND NEUMANN_PRES MLC_LAT MLC_LON MLC_CLASS MLC_WIND MLC_PRES USA_GUST BOM_GUST BOM_GUST_PER REUNION_GUST REUNION_GUST_PER USA_SEAHGT USA_SEARAD_NE USA_SEARAD_SE USA_SEARAD_SW USA_SEARAD_NW STORM_SPEED STORM_DIR
1940007S11066 1940 5 SI MM NOT_NAMED 1940-01-07 06:00:00 NR -11.2000 65.6000 reunion main 1306 1306 _____O________ -1 -11.2000 65.6000 99 9.90000 2 89
1940007S11066 1940 5 SI MM NOT_NAMED 1940-01-07 09:00:00 NR -11.1971 65.7248 main 1313 1313 _____P________ -1 -11.1971 65.7248 99 2 89
1940007S11066 1940 5 SI MM NOT_NAMED 1940-01-07 12:00:00 NR -11.1956 65.8305 main 1320 1320 _____P________ -1 -11.1956 65.8305 99 2 90
1940007S11066 1940 5 SI MM NOT_NAMED 1940-01-07 15:00:00 NR -11.1971 65.8982 main 1327 1327 _____P________ -1 -11.1971 65.8982 99 1 95
1940007S11066 1940 5 SI MM NOT_NAMED 1940-01-07 18:00:00 NR -11.2030 65.9089 main 1327 1327 _____P________ -1 -11.2030 65.9089 99 1 251
1940007S11066 1940 5 SI MM NOT_NAMED 1940-01-07 21:00:00 NR -11.2149 65.8434 main 1320 1306 _____P________ -1 -11.2149 65.8434 99 3 266
1940007S11066 1940 5 SI MM NOT_NAMED 1940-01-08 00:00:00 TS -11.2273 65.5663 main 1306 1256 _____P___O____ -1 -11.2342 65.6829 99 -11.2000 65.1000 TC 35 8 266
1940007S11066 1940 5 SI MM NOT_NAMED 1940-01-08 03:00:00 TS -11.2758 64.9896 main 1256 1218 _____P___P____ -1 -11.2622 65.4081 99 -11.3031 64.1526 TC 35 12 265
1940007S11066 1940 5 SI MM NOT_NAMED 1940-01-08 06:00:00 TS -11.3250 64.3375 reunion main 1211 1160 _____O___OO___ -1 -11.3000 65.0000 99 9.90000 -11.4000 63.2000 TC 35 -11.2000 65.1000 2 15 265
1940007S11066 1940 5 SI MM NOT_NAMED 1940-01-08 09:00:00 TS -11.3940 63.5054 main 1154 1106 _____P___PP___ -1 -11.3486 64.4462 99 -11.4923 62.2424 TC 35 -11.2880 64.1500 2 16 265
1940007S11066 1940 5 SI MM NOT_NAMED 1940-01-08 12:00:00 TS -11.4705 62.7135 main 1101 1051 _____P___OP___ -1 -11.4092 63.7624 99 -11.6000 61.3000 TC 35 -11.3796 63.1997 2 16 264
1940007S11066 1940 5 SI MM NOT_NAMED 1940-01-08 15:00:00 TS -11.5688 61.8712 main 1051 1004 _____P___PP___ -1 -11.4828 62.9715 99 -11.7421 60.3925 TC 35 -11.4814 62.2497 2 17 263
1940007S11066 1940 5 SI MM NOT_NAMED 1940-01-08 18:00:00 TS -11.6903 60.9653 main 1004 963 _____P___OO___ -1 -11.5708 62.0960 99 -11.9000 59.5000 TC 35 -11.6000 61.3000 2 18 262
1940007S11066 1940 5 SI MM NOT_NAMED 1940-01-08 21:00:00 TS -11.8238 60.0274 main 960 920 _____P___PP___ -1 -11.6747 61.1586 99 -12.0575 58.5700 TC 35 -11.7393 60.3535 2 18 262
1940007S11066 1940 5 SI MM NOT_NAMED 1940-01-09 00:00:00 TS -11.9627 59.1025 main 918 897 _____P___OP___ -1 -11.7961 60.1819 99 -12.2000 57.7000 TC 35 -11.8921 59.4255 2 18 261
1940007S11066 1940 5 SI MM NOT_NAMED 1940-01-09 03:00:00 TS -12.0952 58.2309 main 896 811 _____P___PP___ -1 -11.9371 59.1883 99 -12.2996 56.9698 TC 35 -12.0488 58.5346 2 17 261
1940007S11066 1940 5 SI MM NOT_NAMED 1940-01-09 06:00:00 TS -12.2333 57.4000 reunion main 811 721 _____O___OO___ -1 -12.1000 58.2000 99 9.90000 -12.4000 56.3000 TC 35 -12.2000 57.7000 2 16 260
1940007S11066 1940 5 SI MM NOT_NAMED 1940-01-09 09:00:00 TS -12.3814 56.5911 main 721 634 _____P___PP___ -1 -12.2951 57.2004 99 -12.5347 55.6149 TC 35 -12.3143 56.9580 2 16 259
1940007S11066 1940 5 SI MM NOT_NAMED 1940-01-09 12:00:00 TS -12.5465 55.7814 main 634 544 _____P___OP___ -1 -12.5143 56.1753 99 -12.7000 54.9000 TC 35 -12.4253 56.2689 2 16 258
1940007S11066 1940 5 SI MM NOT_NAMED 1940-01-09 15:00:00 TS -12.7283 54.9532 main 544 455 _____P___PP___ -1 -12.7512 55.1494 99 -12.8849 54.1149 TC 35 -12.5487 55.5954 2 17 257
1940007S11066 1940 5 SI MM NOT_NAMED 1940-01-09 18:00:00 TS -12.9333 54.1160 main 444 352 _____P___OO___ -1 -12.9998 54.1479 99 -13.1000 53.3000 TC 35 -12.7000 54.9000 2 17 255
1940007S11066 1940 5 SI MM NOT_NAMED 1940-01-09 21:00:00 TS -13.1697 53.2323 main 342 263 _____P___PP___ -1 -13.2543 53.1963 99 -13.3577 52.4402 TC 35 -12.8972 54.0604 2 17 254
1940007S11066 1940 5 SI MM NOT_NAMED 1940-01-10 00:00:00 TS -13.4102 52.4080 main 252 185 _____P___OP___ -1 -13.5091 52.3205 99 -13.6000 51.7000 TC 35 -13.1215 53.2035 2 15 253
1940007S11066 1940 5 SI MM NOT_NAMED 1940-01-10 03:00:00 TS -13.6204 51.7244 main 174 118 _____P___PP___ -1 -13.7593 51.5464 99 -13.7421 51.2322 TC 35 -13.3598 52.3947 2 13 251
1940007S11066 1940 5 SI MM NOT_NAMED 1940-01-10 06:00:00 TS -13.8333 51.1667 reunion main 118 64 _____O___OO___ -1 -14.0000 50.9000 99 9.90000 -13.9000 50.9000 TC 35 -13.6000 51.7000 2 11 246
1940007S11066 1940 5 SI MM NOT_NAMED 1940-01-10 09:00:00 TS -14.0757 50.6675 main 64 21 _____P___PP___ -1 -14.2199 50.3998 99 -14.1776 50.4827 TC 35 -13.8199 51.1175 2 10 239
1940007S11066 1940 5 SI MM NOT_NAMED 1940-01-10 12:00:00 TS -14.3329 50.2966 main 21 0 _____P___OP___ -1 -14.4366 50.0195 99 -14.5000 50.2000 TC 35 -14.0412 50.6652 2 8 228
1940007S11066 1940 5 SI MM NOT_NAMED 1940-01-10 15:00:00 TS -14.5873 50.0900 main 0 0 _____P___PP___ -1 -14.6491 49.7474 99 -14.8149 50.1599 TC 35 -14.2670 50.3553 2 6 208
1940007S11066 1940 5 SI MM NOT_NAMED 1940-01-10 18:00:00 TS -14.8315 50.0270 main 0 0 _____P___OO___ -1 -14.8561 49.5716 99 -15.1000 50.3000 TC 35 -14.5000 50.2000 2 5 187
1940007S11066 1940 5 SI MM NOT_NAMED 1940-01-10 21:00:00 TS -15.0540 50.0267 main 0 0 _____P___PP___ -1 -15.0564 49.4807 99 -15.3148 50.4676 TC 35 -14.7499 50.1218 2 5 164
1940007S11066 1940 5 SI MM NOT_NAMED 1940-01-11 00:00:00 TS -15.2637 50.1573 main 0 0 _____P___OP___ -1 -15.2482 49.4628 99 -15.5000 50.8000 TC 35 -15.0060 50.2001 2 6 137
1940007S11066 1940 5 SI MM NOT_NAMED 1940-01-11 03:00:00 TS -15.4710 50.4269 main 0 0 _____P___PP___ -1 -15.4300 49.5065 99 -15.7001 51.3400 TC 35 -15.2592 50.4283 2 8 119
1940007S11066 1940 5 SI MM NOT_NAMED 1940-01-11 06:00:00 TS -15.6727 50.9091 reunion main 54 54 _____O___OO___ -1 -15.6000 49.6000 99 9.90000 -15.9000 52.0000 TC 35 -15.5000 50.8000 2 11 111
1940007S11066 1940 5 SI MM NOT_NAMED 1940-01-11 09:00:00 TS -15.8655 51.4981 main 120 120 _____P___PP___ -1 -15.7451 49.6474 99 -16.0999 52.6426 TC 35 -15.7111 51.2884 2 14 107
1940007S11066 1940 5 SI MM NOT_NAMED 1940-01-11 12:00:00 TS -16.0690 52.2828 main 208 208 _____P___OP___ -1 -15.8746 49.7563 99 -16.3000 53.3000 TC 35 -15.9086 51.9076 2 18 104
1940007S11066 1940 5 SI MM NOT_NAMED 1940-01-11 15:00:00 TS -16.2970 53.2779 main 316 316 _____P___PP___ -1 -15.9903 49.9214 99 -16.4924 53.9577 TC 35 -16.1016 52.5980 2 17 105
1940007S11066 1940 5 SI MM NOT_NAMED 1940-01-11 18:00:00 TS -16.5000 53.9500 main 394 383 _____P___OO___ -1 -16.0939 50.1373 99 -16.7000 54.6000 TC 35 -16.3000 53.3000 2 14 109
1940007S11066 1940 5 SI MM NOT_NAMED 1940-01-11 21:00:00 TS -16.7498 54.6168 main 461 423 _____P___PP___ -1 -16.1869 50.3986 99 -16.9651 55.2523 TC 35 -16.5345 53.9813 2 13 112
1940007S11066 1940 5 SI MM NOT_NAMED 1940-01-12 00:00:00 TS -16.9866 55.2271 main 423 385 _____P___OP___ -1 -16.2711 50.6997 99 -17.2000 55.8000 TC 35 -16.7733 54.6542 2 11 111
1940007S11066 1940 5 SI MM NOT_NAMED 1940-01-12 03:00:00 TS -17.1575 55.7139 main 375 346 _____P___PP___ -1 -16.3480 51.0352 99 -17.3147 56.1528 TC 35 -17.0003 55.2750 2 9 111
1940007S11066 1940 5 SI MM NOT_NAMED 1940-01-12 06:00:00 TS -17.3000 56.1000 reunion main 346 323 _____P___OO___ -1 -16.4194 51.3997 99 -17.4000 56.4000 TC 35 -17.2000 55.8000 2 7 113
1940007S11066 1940 5 SI MM NOT_NAMED 1940-01-12 09:00:00 TS -17.4475 56.4248 main 323 292 _____P___PP___ -1 -16.4869 51.7876 99 -17.5425 56.6650 TC 35 -17.3526 56.1845 2 6 117
1940007S11066 1940 5 SI MM NOT_NAMED 1940-01-12 12:00:00 TS -17.5893 56.6854 main 292 275 _____P___OP___ -1 -16.5522 52.1935 99 -17.7000 56.9000 TC 35 -17.4787 56.4709 2 5 121
1940007S11066 1940 5 SI MM NOT_NAMED 1940-01-12 15:00:00 TS -17.7239 56.8984 main 275 260 _____P___PP___ -1 -16.6172 52.6118 99 -17.8574 57.1000 TC 35 -17.5905 56.6968 2 5 123
1940007S11066 1940 5 SI MM NOT_NAMED 1940-01-12 18:00:00 TS -17.8500 57.1000 main 260 235 _____P___OO___ -1 -16.6835 53.0372 99 -18.0000 57.3000 TC 35 -17.7000 56.9000 2 5 120
1940007S11066 1940 5 SI MM NOT_NAMED 1940-01-12 21:00:00 TS -17.9624 57.3390 main 235 223 _____P___PP___ -1 -16.7530 53.4641 99 -18.1000 57.5426 TC 35 -17.8248 57.1355 2 5 116
1940007S11066 1940 5 SI MM NOT_NAMED 1940-01-13 00:00:00 TS -18.0749 57.5789 main 223 212 _____P___OP___ -1 -16.8277 53.8871 99 -18.2000 57.8000 TC 35 -17.9497 57.3577 2 5 119
1940007S11066 1940 5 SI MM NOT_NAMED 1940-01-13 03:00:00 TS -18.2124 57.8130 main 212 212 _____P___PP___ -1 -16.9093 54.3009 99 -18.3500 58.0500 TC 35 -18.0748 57.5761 2 2 142
1940007S11066 1940 5 SI MM NOT_NAMED 1940-01-13 06:00:00 TS -18.2000 57.6778 reunion main 212 212 _____O___OO___ -1 -17.0000 54.7000 99 9.90000 -18.5000 58.3000 TC 35 -18.2000 57.8000 2 2 276
1940007S11066 1940 5 SI MM NOT_NAMED 1940-01-13 09:00:00 TS -18.1948 57.6480 main 212 212 _____P___PP___ -1 -17.1133 55.0353 99 -18.6074 58.5426 TC 35 -18.3208 58.0389 2 0 0
1940007S11066 1940 5 SI MM NOT_NAMED 1940-01-13 12:00:00 TS -18.2073 57.6957 main 212 212 _____P___OP___ -1 -17.2307 55.3728 99 -18.7000 58.8000 TC 35 -18.4424 58.2852 2 2 106
1940007S11066 1940 5 SI MM NOT_NAMED 1940-01-13 15:00:00 TS -18.2372 57.8075 main 212 194 _____P___PP___ -1 -17.3519 55.7116 99 -18.7850 59.1001 TC 35 -18.5677 58.5389 2 4 112
1940007S11066 1940 5 SI MM NOT_NAMED 1940-01-13 18:00:00 TS -18.3610 58.1061 main 194 189 _____P___OO___ -1 -17.4765 56.0511 99 -18.9000 59.4000 TC 35 -18.7000 58.8000 2 6 115
1940007S11066 1940 5 SI MM NOT_NAMED 1940-01-13 21:00:00 TS -18.5031 58.4070 main 193 187 _____P___PP___ -1 -17.6040 56.3905 99 -19.0775 59.6799 TC 35 -18.8227 59.0963 2 6 119
1940007S11066 1940 5 SI MM NOT_NAMED 1940-01-14 00:00:00 TS -18.6642 58.6868 main 188 185 _____P___OP___ -1 -17.7340 56.7289 99 -19.3000 59.9000 TC 35 -18.9553 59.3950 2 6 124
1940007S11066 1940 5 SI MM NOT_NAMED 1940-01-14 03:00:00 TS -18.8376 58.9256 main 192 191 _____P___PP___ -1 -17.8661 57.0657 99 -19.5349 60.0226 TC 35 -19.1102 59.6712 2 6 131
1940007S11066 1940 5 SI MM NOT_NAMED 1940-01-14 06:00:00 TS -19.0333 59.1333 reunion main 191 191 _____O___OO___ -1 -18.0000 57.4000 99 9.90000 -19.8000 60.1000 TC 35 -19.3000 59.9000 2 6 136
1940007S11066 1940 5 SI MM NOT_NAMED 1940-01-14 09:00:00 TS -19.2426 59.3371 main 195 189 _____P___PP___ -1 -18.1017 57.7506 99 -20.0925 60.2000 TC 35 -19.5347 60.0506 2 6 139
1940007S11066 1940 5 SI MM NOT_NAMED 1940-01-14 12:00:00 TS -19.4680 59.5253 main 198 198 _____P___OP___ -1 -18.2019 58.1015 99 -20.4000 60.3000 TC 35 -19.8047 60.1529 2 6 143
1940007S11066 1940 5 SI MM NOT_NAMED 1940-01-14 15:00:00 TS -19.6999 59.7033 main 209 206 _____P___PP___ -1 -18.3063 58.4488 99 -20.7000 60.4000 TC 35 -20.0973 60.2287 2 6 145
1940007S11066 1940 5 SI MM NOT_NAMED 1940-01-14 18:00:00 TS -19.9387 59.8762 main 223 221 _____P___OO___ -1 -18.4209 58.7887 99 -21.0000 60.5000 TC 35 -20.4000 60.3000 2 6 144
1940007S11066 1940 5 SI MM NOT_NAMED 1940-01-14 21:00:00 TS -20.1536 60.0471 main 229 229 _____P___PP___ -1 -18.5516 59.1175 99 -21.2625 60.5927 TC 35 -20.6521 60.3884 2 6 146
1940007S11066 1940 5 SI MM NOT_NAMED 1940-01-15 00:00:00 TS -20.4056 60.2161 main 250 250 _____P___OP___ -1 -18.7043 59.4314 99 -21.6000 60.7000 TC 35 -20.9174 60.4784 2 8 154
1940007S11066 1940 5 SI MM NOT_NAMED 1940-01-15 03:00:00 TS -20.9084 60.4465 main 278 278 _____P___PP___ -1 -18.8851 59.7268 99 -22.1125 60.8350 TC 35 -21.2240 60.5792 2 12 159
1940007S11066 1940 5 SI MM NOT_NAMED 1940-01-15 06:00:00 TS -21.5400 60.6800 reunion main 329 329 _____O___OO___ -1 -19.1000 60.0000 99 9.90000 -22.7000 61.0000 TC 35 -21.6000 60.7000 2 15 162
1940007S11066 1940 5 SI MM NOT_NAMED 1940-01-15 09:00:00 TS -22.3086 60.9347 main 387 387 _____P___PP___ -1 -19.4239 60.2476 99 -23.2650 61.1999 TC 35 -22.0944 60.8530 2 18 164
1940007S11066 1940 5 SI MM NOT_NAMED 1940-01-15 12:00:00 TS -23.2276 61.2135 main 470 470 _____P___OP___ -1 -19.8001 60.4725 99 -23.8000 61.4000 TC 35 -22.6551 61.0269 2 15 164
1940007S11066 1940 5 SI MM NOT_NAMED 1940-01-15 15:00:00 TS -23.7516 61.3814 main 530 530 _____P___PP___ -1 -20.2211 60.6761 99 -24.2649 61.5503 TC 35 -23.2382 61.2125 2 11 163
1940007S11066 1940 5 SI MM NOT_NAMED 1940-01-15 18:00:00 TS -24.2500 61.5500 main 575 583 _____P___OO___ -1 -20.6794 60.8601 99 -24.7000 61.7000 TC 35 -23.8000 61.4000 2 10 161
1940007S11066 1940 5 SI MM NOT_NAMED 1940-01-15 21:00:00 TS -24.7242 61.7454 main 623 623 _____P___PP___ -1 -21.1673 61.0256 99 -25.1575 61.9074 TC 35 -24.2909 61.5833 2 10 159
1940007S11066 1940 5 SI MM NOT_NAMED 1940-01-16 00:00:00 TS -25.1762 61.9326 main 678 678 _____P___OP___ -1 -21.6773 61.1740 99 -25.6000 62.1000 TC 35 -24.7524 61.7652 2 9 161
1940007S11066 1940 5 SI MM NOT_NAMED 1940-01-16 03:00:00 TS -25.6014 62.0737 main 726 726 _____P___PP___ -1 -22.2017 61.3068 99 -26.0149 62.2078 TC 35 -25.1878 61.9395 2 9 164
1940007S11066 1940 5 SI MM NOT_NAMED 1940-01-16 06:00:00 TS -26.0000 62.2000 reunion main 767 767 _____P___OO___ -1 -22.7328 61.4250 99 -26.4000 62.3000 TC 35 -25.6000 62.1000 2 8 163
1940007S11066 1940 5 SI MM NOT_NAMED 1940-01-16 09:00:00 TS -26.3654 62.3393 main 809 809 _____P___PP___ -1 -23.2629 61.5300 99 -26.7425 62.4426 TC 35 -25.9883 62.2361 2 8 161
1940007S11066 1940 5 SI MM NOT_NAMED 1940-01-16 12:00:00 TS -26.7287 62.4793 main 847 847 _____P___OP___ -1 -23.7844 61.6230 99 -27.1000 62.6000 TC 35 -26.3573 62.3585 2 8 162
1940007S11066 1940 5 SI MM NOT_NAMED 1940-01-16 15:00:00 TS -27.1326 62.6134 main 889 889 _____P___PP___ -1 -24.2894 61.7053 99 -27.5425 62.7500 TC 35 -26.7227 62.4767 2 4 166
1940007S11066 1940 5 SI MM NOT_NAMED 1940-01-16 18:00:00 TS -27.0803 62.5810 main 889 889 _____P___OO___ -1 -24.7704 61.7782 99 -28.0000 62.9000 TC 35 -27.1000 62.6000 2 1 322
1940007S11066 1940 5 SI MM NOT_NAMED 1940-01-16 21:00:00 TS -27.0627 62.5497 main 884 875 _____P___PP___ -1 -25.2195 61.8427 99 -28.4150 63.0498 TC 35 -27.5011 62.7360 2 2 319
1940007S11066 1940 5 SI MM NOT_NAMED 1940-01-17 00:00:00 TS -26.9613 62.4632 main 875 836 _____P___OP___ -1 -25.6293 61.9004 99 -28.8000 63.2000 TC 35 -27.9227 62.8835 2 4 326
1940007S11066 1940 5 SI MM NOT_NAMED 1940-01-17 03:00:00 NR -26.7075 62.2838 main 836 836 _____P____P___ -1 -25.9920 61.9524 99 TC -28.3580 63.0393 2 3 309
1940007S11066 1940 5 SI MM NOT_NAMED 1940-01-17 06:00:00 NR -26.8000 62.2400 reunion main 839 815 _____O____O___ -1 -26.3000 62.0000 99 9.90000 -28.8000 63.2000 2 2 294
1940007S11066 1940 5 SI MM NOT_NAMED 1940-01-17 09:00:00 NR -26.6255 62.0772 main 815 815 _____P________ -1 -26.5484 62.0444 99 2 1 234
1940007S11066 1940 5 SI MM NOT_NAMED 1940-01-17 12:00:00 NR -26.8657 62.1387 main 843 843 _____P________ -1 -26.7423 62.0861 99 2 4 167
1940007S11066 1940 5 SI MM NOT_NAMED 1940-01-17 15:00:00 NR -27.0329 62.1867 main 858 858 _____P________ -1 -26.8897 62.1254 99 2 3 163
1940007S11066 1940 5 SI MM NOT_NAMED 1940-01-17 18:00:00 NR -27.1393 62.2232 main 867 867 _____P________ -1 -26.9983 62.1628 99 2 162
1940007S11066 1940 5 SI MM NOT_NAMED 1940-01-17 21:00:00 NR -27.1970 62.2505 main 882 882 _____P________ -1 -27.0759 62.1985 99 1 153
1940007S11066 1940 5 SI MM NOT_NAMED 1940-01-18 00:00:00 NR -27.2183 62.2708 main 882 882 _____P________ -1 -27.1302 62.2330 99 0 117
1940007S11066 1940 5 SI MM NOT_NAMED 1940-01-18 03:00:00 NR -27.2152 62.2866 main 882 882 _____P________ -1 -27.1690 62.2667 99 0 0
1940007S11066 1940 5 SI MM NOT_NAMED 1940-01-18 06:00:00 NR -27.2000 62.3000 reunion main 882 _____O________ -1 -27.2000 62.3000 99 9.90000 0 0

IBTrACS Databaseについて

本データベースは、米国NOAAが公開する1842年以降の世界の熱帯低気圧のベストトラックデータアーカイブInternational Best Track Archive for Climate Stewardship (IBTrACS)を、ウェブで閲覧しやすい形式に変換したものです。

最終更新日:2021-10-08